sensor_id;sensor_type;location;lat;lon;timestamp;P1;durP1;ratioP1;P2;durP2;ratioP2
23676;SDS011;31493;49.058;12.190;2023-06-14T00:02:09;4.35;;;3.10;;
23676;SDS011;31493;49.058;12.190;2023-06-14T00:04:36;7.28;;;3.38;;
23676;SDS011;31493;49.058;12.190;2023-06-14T00:07:05;6.20;;;3.50;;
23676;SDS011;31493;49.058;12.190;2023-06-14T00:09:33;8.38;;;3.08;;
23676;SDS011;31493;49.058;12.190;2023-06-14T00:12:02;5.15;;;3.17;;
23676;SDS011;31493;49.058;12.190;2023-06-14T00:14:29;7.00;;;3.47;;
23676;SDS011;31493;49.058;12.190;2023-06-14T00:16:56;8.95;;;3.20;;
23676;SDS011;31493;49.058;12.190;2023-06-14T00:19:24;6.30;;;3.30;;
23676;SDS011;31493;49.058;12.190;2023-06-14T00:21:51;4.40;;;3.22;;
23676;SDS011;31493;49.058;12.190;2023-06-14T00:24:19;8.20;;;4.15;;
23676;SDS011;31493;49.058;12.190;2023-06-14T00:26:46;8.88;;;3.17;;
23676;SDS011;31493;49.058;12.190;2023-06-14T00:29:15;6.30;;;3.42;;
23676;SDS011;31493;49.058;12.190;2023-06-14T00:31:42;5.28;;;3.38;;
23676;SDS011;31493;49.058;12.190;2023-06-14T00:34:09;6.75;;;3.35;;
23676;SDS011;31493;49.058;12.190;2023-06-14T00:36:36;6.25;;;3.25;;
23676;SDS011;31493;49.058;12.190;2023-06-14T00:39:03;5.25;;;3.10;;
23676;SDS011;31493;49.058;12.190;2023-06-14T00:41:30;5.32;;;3.33;;
23676;SDS011;31493;49.058;12.190;2023-06-14T00:43:57;7.00;;;3.20;;
23676;SDS011;31493;49.058;12.190;2023-06-14T00:46:26;5.57;;;3.37;;
23676;SDS011;31493;49.058;12.190;2023-06-14T00:48:53;5.30;;;3.53;;
23676;SDS011;31493;49.058;12.190;2023-06-14T00:51:22;4.05;;;3.17;;
23676;SDS011;31493;49.058;12.190;2023-06-14T00:53:50;4.85;;;3.00;;
23676;SDS011;31493;49.058;12.190;2023-06-14T00:56:17;6.75;;;4.15;;
23676;SDS011;31493;49.058;12.190;2023-06-14T00:58:46;4.88;;;3.22;;
23676;SDS011;31493;49.058;12.190;2023-06-14T01:01:14;7.85;;;3.13;;
23676;SDS011;31493;49.058;12.190;2023-06-14T01:03:42;6.32;;;3.42;;
23676;SDS011;31493;49.058;12.190;2023-06-14T01:06:11;5.35;;;3.22;;
23676;SDS011;31493;49.058;12.190;2023-06-14T01:08:56;4.35;;;3.10;;
23676;SDS011;31493;49.058;12.190;2023-06-14T01:11:36;7.90;;;3.25;;
23676;SDS011;31493;49.058;12.190;2023-06-14T01:14:06;4.82;;;3.35;;
23676;SDS011;31493;49.058;12.190;2023-06-14T01:16:34;6.07;;;3.22;;
23676;SDS011;31493;49.058;12.190;2023-06-14T01:19:06;6.78;;;3.35;;
23676;SDS011;31493;49.058;12.190;2023-06-14T01:21:39;5.93;;;3.13;;
23676;SDS011;31493;49.058;12.190;2023-06-14T01:24:08;4.83;;;3.37;;
23676;SDS011;31493;49.058;12.190;2023-06-14T01:26:36;7.57;;;3.75;;
23676;SDS011;31493;49.058;12.190;2023-06-14T01:29:11;6.35;;;3.42;;
23676;SDS011;31493;49.058;12.190;2023-06-14T01:31:43;7.13;;;3.60;;
23676;SDS011;31493;49.058;12.190;2023-06-14T01:34:10;11.20;;;3.65;;
23676;SDS011;31493;49.058;12.190;2023-06-14T01:36:38;7.93;;;3.70;;
23676;SDS011;31493;49.058;12.190;2023-06-14T01:39:09;7.20;;;3.28;;
23676;SDS011;31493;49.058;12.190;2023-06-14T01:41:38;6.95;;;3.55;;
23676;SDS011;31493;49.058;12.190;2023-06-14T01:44:06;7.32;;;3.30;;
23676;SDS011;31493;49.058;12.190;2023-06-14T01:46:34;5.07;;;3.20;;
23676;SDS011;31493;49.058;12.190;2023-06-14T01:49:01;6.85;;;3.50;;
23676;SDS011;31493;49.058;12.190;2023-06-14T01:51:28;5.72;;;3.42;;
23676;SDS011;31493;49.058;12.190;2023-06-14T01:53:56;4.93;;;3.50;;
23676;SDS011;31493;49.058;12.190;2023-06-14T01:56:24;4.88;;;3.58;;
23676;SDS011;31493;49.058;12.190;2023-06-14T01:58:52;3.88;;;3.45;;
23676;SDS011;31493;49.058;12.190;2023-06-14T02:01:19;8.13;;;3.53;;
23676;SDS011;31493;49.058;12.190;2023-06-14T02:03:46;7.10;;;3.97;;
23676;SDS011;31493;49.058;12.190;2023-06-14T02:06:14;7.65;;;3.95;;
23676;SDS011;31493;49.058;12.190;2023-06-14T02:08:42;6.00;;;3.58;;
23676;SDS011;31493;49.058;12.190;2023-06-14T02:11:09;6.53;;;3.65;;
23676;SDS011;31493;49.058;12.190;2023-06-14T02:13:37;7.38;;;3.63;;
23676;SDS011;31493;49.058;12.190;2023-06-14T02:16:04;5.22;;;3.60;;
23676;SDS011;31493;49.058;12.190;2023-06-14T02:18:31;4.47;;;3.33;;
23676;SDS011;31493;49.058;12.190;2023-06-14T02:20:58;7.85;;;3.50;;
23676;SDS011;31493;49.058;12.190;2023-06-14T02:23:25;5.00;;;3.30;;
23676;SDS011;31493;49.058;12.190;2023-06-14T02:25:52;5.00;;;3.50;;
23676;SDS011;31493;49.058;12.190;2023-06-14T02:28:19;8.23;;;3.70;;
23676;SDS011;31493;49.058;12.190;2023-06-14T02:30:48;7.55;;;3.90;;
23676;SDS011;31493;49.058;12.190;2023-06-14T02:33:15;4.68;;;3.45;;
23676;SDS011;31493;49.058;12.190;2023-06-14T02:35:43;6.68;;;3.67;;
23676;SDS011;31493;49.058;12.190;2023-06-14T02:38:10;5.15;;;3.75;;
23676;SDS011;31493;49.058;12.190;2023-06-14T02:40:37;7.40;;;3.85;;
23676;SDS011;31493;49.058;12.190;2023-06-14T02:43:04;7.22;;;3.85;;
23676;SDS011;31493;49.058;12.190;2023-06-14T02:45:31;7.05;;;3.90;;
23676;SDS011;31493;49.058;12.190;2023-06-14T02:47:59;5.85;;;4.25;;
23676;SDS011;31493;49.058;12.190;2023-06-14T02:50:26;5.43;;;3.50;;
23676;SDS011;31493;49.058;12.190;2023-06-14T02:52:55;6.15;;;4.10;;
23676;SDS011;31493;49.058;12.190;2023-06-14T02:55:22;5.65;;;3.75;;
23676;SDS011;31493;49.058;12.190;2023-06-14T02:57:49;6.47;;;3.55;;
23676;SDS011;31493;49.058;12.190;2023-06-14T03:00:19;4.47;;;3.58;;
23676;SDS011;31493;49.058;12.190;2023-06-14T03:02:46;5.28;;;3.85;;
23676;SDS011;31493;49.058;12.190;2023-06-14T03:05:14;4.10;;;3.53;;
23676;SDS011;31493;49.058;12.190;2023-06-14T03:10:10;5.68;;;3.83;;
23676;SDS011;31493;49.058;12.190;2023-06-14T03:12:38;7.78;;;4.03;;
23676;SDS011;31493;49.058;12.190;2023-06-14T03:15:06;5.25;;;3.55;;
23676;SDS011;31493;49.058;12.190;2023-06-14T03:17:34;7.72;;;3.58;;
23676;SDS011;31493;49.058;12.190;2023-06-14T03:20:05;4.30;;;3.65;;
23676;SDS011;31493;49.058;12.190;2023-06-14T03:22:35;5.85;;;3.65;;
23676;SDS011;31493;49.058;12.190;2023-06-14T03:25:03;5.30;;;4.20;;
23676;SDS011;31493;49.058;12.190;2023-06-14T03:27:30;6.78;;;4.15;;
23676;SDS011;31493;49.058;12.190;2023-06-14T03:29:57;5.15;;;3.88;;
23676;SDS011;31493;49.058;12.190;2023-06-14T03:32:25;6.22;;;4.20;;
23676;SDS011;31493;49.058;12.190;2023-06-14T03:34:52;4.32;;;3.65;;
23676;SDS011;31493;49.058;12.190;2023-06-14T03:37:19;7.32;;;3.92;;
23676;SDS011;31493;49.058;12.190;2023-06-14T03:39:47;5.75;;;3.97;;
23676;SDS011;31493;49.058;12.190;2023-06-14T03:42:14;4.90;;;3.78;;
23676;SDS011;31493;49.058;12.190;2023-06-14T03:44:41;5.57;;;3.95;;
23676;SDS011;31493;49.058;12.190;2023-06-14T03:47:08;9.68;;;4.20;;
23676;SDS011;31493;49.058;12.190;2023-06-14T03:49:35;6.75;;;4.55;;
23676;SDS011;31493;49.058;12.190;2023-06-14T03:52:03;6.47;;;4.28;;
23676;SDS011;31493;49.058;12.190;2023-06-14T03:54:31;8.63;;;4.07;;
23676;SDS011;31493;49.058;12.190;2023-06-14T03:56:59;6.75;;;3.75;;
23676;SDS011;31493;49.058;12.190;2023-06-14T03:59:26;6.10;;;3.95;;
23676;SDS011;31493;49.058;12.190;2023-06-14T04:01:53;5.85;;;4.28;;
23676;SDS011;31493;49.058;12.190;2023-06-14T04:04:21;5.45;;;3.88;;
23676;SDS011;31493;49.058;12.190;2023-06-14T04:06:55;4.18;;;3.30;;
23676;SDS011;31493;49.058;12.190;2023-06-14T04:09:24;6.07;;;4.05;;
23676;SDS011;31493;49.058;12.190;2023-06-14T04:11:51;4.28;;;3.88;;
23676;SDS011;31493;49.058;12.190;2023-06-14T04:14:20;5.10;;;3.80;;
23676;SDS011;31493;49.058;12.190;2023-06-14T04:16:47;5.68;;;4.10;;
23676;SDS011;31493;49.058;12.190;2023-06-14T04:19:15;6.78;;;3.95;;
23676;SDS011;31493;49.058;12.190;2023-06-14T04:21:42;10.05;;;3.88;;
23676;SDS011;31493;49.058;12.190;2023-06-14T04:24:10;7.40;;;4.45;;
23676;SDS011;31493;49.058;12.190;2023-06-14T04:26:38;4.72;;;4.00;;
23676;SDS011;31493;49.058;12.190;2023-06-14T04:29:06;7.90;;;3.90;;
23676;SDS011;31493;49.058;12.190;2023-06-14T04:31:34;6.05;;;3.90;;
23676;SDS011;31493;49.058;12.190;2023-06-14T04:34:05;6.45;;;4.13;;
23676;SDS011;31493;49.058;12.190;2023-06-14T04:36:32;7.40;;;3.95;;
23676;SDS011;31493;49.058;12.190;2023-06-14T04:39:02;5.72;;;4.45;;
23676;SDS011;31493;49.058;12.190;2023-06-14T04:41:29;7.20;;;4.03;;
23676;SDS011;31493;49.058;12.190;2023-06-14T04:43:57;7.40;;;4.45;;
23676;SDS011;31493;49.058;12.190;2023-06-14T04:46:27;6.70;;;4.55;;
23676;SDS011;31493;49.058;12.190;2023-06-14T04:48:55;7.28;;;4.03;;
23676;SDS011;31493;49.058;12.190;2023-06-14T04:53:55;7.63;;;4.45;;
23676;SDS011;31493;49.058;12.190;2023-06-14T04:56:23;8.48;;;4.38;;
23676;SDS011;31493;49.058;12.190;2023-06-14T04:58:51;6.97;;;3.88;;
23676;SDS011;31493;49.058;12.190;2023-06-14T05:01:19;5.63;;;3.83;;
23676;SDS011;31493;49.058;12.190;2023-06-14T05:03:48;6.65;;;4.00;;
23676;SDS011;31493;49.058;12.190;2023-06-14T05:06:17;6.38;;;4.43;;
23676;SDS011;31493;49.058;12.190;2023-06-14T05:08:44;7.28;;;4.20;;
23676;SDS011;31493;49.058;12.190;2023-06-14T05:11:11;8.50;;;4.22;;
23676;SDS011;31493;49.058;12.190;2023-06-14T05:13:38;5.40;;;3.80;;
23676;SDS011;31493;49.058;12.190;2023-06-14T05:16:06;8.32;;;4.32;;
23676;SDS011;31493;49.058;12.190;2023-06-14T05:18:33;6.90;;;4.32;;
23676;SDS011;31493;49.058;12.190;2023-06-14T05:21:01;8.05;;;4.47;;
23676;SDS011;31493;49.058;12.190;2023-06-14T05:23:30;5.95;;;4.03;;
23676;SDS011;31493;49.058;12.190;2023-06-14T05:25:57;10.88;;;4.75;;
23676;SDS011;31493;49.058;12.190;2023-06-14T05:28:25;6.32;;;3.65;;
23676;SDS011;31493;49.058;12.190;2023-06-14T05:30:52;6.13;;;4.22;;
23676;SDS011;31493;49.058;12.190;2023-06-14T05:33:19;6.38;;;4.10;;
23676;SDS011;31493;49.058;12.190;2023-06-14T05:35:46;10.52;;;4.55;;
23676;SDS011;31493;49.058;12.190;2023-06-14T05:38:13;5.45;;;3.90;;
23676;SDS011;31493;49.058;12.190;2023-06-14T05:40:41;5.45;;;4.30;;
23676;SDS011;31493;49.058;12.190;2023-06-14T05:43:08;5.55;;;4.07;;
23676;SDS011;31493;49.058;12.190;2023-06-14T05:45:36;8.98;;;4.18;;
23676;SDS011;31493;49.058;12.190;2023-06-14T05:48:03;6.50;;;4.07;;
23676;SDS011;31493;49.058;12.190;2023-06-14T05:50:30;8.73;;;4.20;;
23676;SDS011;31493;49.058;12.190;2023-06-14T05:52:57;5.40;;;4.30;;
23676;SDS011;31493;49.058;12.190;2023-06-14T05:55:24;7.22;;;4.28;;
23676;SDS011;31493;49.058;12.190;2023-06-14T05:57:53;8.52;;;4.60;;
23676;SDS011;31493;49.058;12.190;2023-06-14T06:00:20;6.22;;;4.32;;
23676;SDS011;31493;49.058;12.190;2023-06-14T06:02:47;6.82;;;4.55;;
23676;SDS011;31493;49.058;12.190;2023-06-14T06:05:14;7.95;;;4.53;;
23676;SDS011;31493;49.058;12.190;2023-06-14T06:07:42;7.60;;;4.53;;
23676;SDS011;31493;49.058;12.190;2023-06-14T06:10:10;5.75;;;4.10;;
23676;SDS011;31493;49.058;12.190;2023-06-14T06:12:38;7.15;;;3.92;;
23676;SDS011;31493;49.058;12.190;2023-06-14T06:15:06;10.90;;;4.40;;
23676;SDS011;31493;49.058;12.190;2023-06-14T06:17:37;6.05;;;4.45;;
23676;SDS011;31493;49.058;12.190;2023-06-14T06:20:05;7.60;;;4.13;;
23676;SDS011;31493;49.058;12.190;2023-06-14T06:25:00;5.43;;;3.72;;
23676;SDS011;31493;49.058;12.190;2023-06-14T06:27:28;5.18;;;4.00;;
23676;SDS011;31493;49.058;12.190;2023-06-14T06:29:55;5.78;;;3.75;;
23676;SDS011;31493;49.058;12.190;2023-06-14T06:32:24;6.40;;;4.60;;
23676;SDS011;31493;49.058;12.190;2023-06-14T06:34:51;6.90;;;4.20;;
23676;SDS011;31493;49.058;12.190;2023-06-14T06:37:18;5.78;;;4.13;;
23676;SDS011;31493;49.058;12.190;2023-06-14T06:39:46;8.50;;;4.00;;
23676;SDS011;31493;49.058;12.190;2023-06-14T06:42:13;7.72;;;4.00;;
23676;SDS011;31493;49.058;12.190;2023-06-14T06:44:40;5.95;;;4.20;;
23676;SDS011;31493;49.058;12.190;2023-06-14T06:47:07;6.78;;;4.22;;
23676;SDS011;31493;49.058;12.190;2023-06-14T06:49:36;6.88;;;4.05;;
23676;SDS011;31493;49.058;12.190;2023-06-14T06:52:04;6.32;;;3.95;;
23676;SDS011;31493;49.058;12.190;2023-06-14T06:54:33;9.57;;;4.10;;
23676;SDS011;31493;49.058;12.190;2023-06-14T06:57:00;7.53;;;4.22;;
23676;SDS011;31493;49.058;12.190;2023-06-14T06:59:27;7.57;;;4.22;;
23676;SDS011;31493;49.058;12.190;2023-06-14T07:01:55;9.77;;;4.40;;
23676;SDS011;31493;49.058;12.190;2023-06-14T07:04:22;7.18;;;4.00;;
23676;SDS011;31493;49.058;12.190;2023-06-14T07:06:51;4.88;;;3.85;;
23676;SDS011;31493;49.058;12.190;2023-06-14T07:09:18;7.95;;;4.35;;
23676;SDS011;31493;49.058;12.190;2023-06-14T07:11:46;4.28;;;3.65;;
23676;SDS011;31493;49.058;12.190;2023-06-14T07:14:13;7.80;;;3.97;;
23676;SDS011;31493;49.058;12.190;2023-06-14T07:16:40;6.63;;;3.92;;
23676;SDS011;31493;49.058;12.190;2023-06-14T07:19:08;6.53;;;4.13;;
23676;SDS011;31493;49.058;12.190;2023-06-14T07:21:36;5.78;;;3.80;;
23676;SDS011;31493;49.058;12.190;2023-06-14T07:24:05;6.97;;;4.07;;
23676;SDS011;31493;49.058;12.190;2023-06-14T07:26:33;6.63;;;4.07;;
23676;SDS011;31493;49.058;12.190;2023-06-14T07:29:00;8.18;;;4.00;;
23676;SDS011;31493;49.058;12.190;2023-06-14T07:31:28;6.43;;;3.80;;
23676;SDS011;31493;49.058;12.190;2023-06-14T07:33:55;5.10;;;3.67;;
23676;SDS011;31493;49.058;12.190;2023-06-14T07:36:22;7.78;;;3.78;;
23676;SDS011;31493;49.058;12.190;2023-06-14T07:38:49;7.55;;;3.63;;
23676;SDS011;31493;49.058;12.190;2023-06-14T07:41:17;5.32;;;3.55;;
23676;SDS011;31493;49.058;12.190;2023-06-14T07:43:44;4.80;;;3.50;;
23676;SDS011;31493;49.058;12.190;2023-06-14T07:46:11;5.45;;;3.13;;
23676;SDS011;31493;49.058;12.190;2023-06-14T07:48:38;5.07;;;3.40;;
23676;SDS011;31493;49.058;12.190;2023-06-14T07:51:05;7.88;;;3.20;;
23676;SDS011;31493;49.058;12.190;2023-06-14T07:53:32;8.27;;;3.50;;
23676;SDS011;31493;49.058;12.190;2023-06-14T07:55:59;5.72;;;3.33;;
23676;SDS011;31493;49.058;12.190;2023-06-14T07:58:29;11.25;;;3.40;;
23676;SDS011;31493;49.058;12.190;2023-06-14T08:00:56;4.88;;;3.22;;
23676;SDS011;31493;49.058;12.190;2023-06-14T08:03:23;7.13;;;4.00;;
23676;SDS011;31493;49.058;12.190;2023-06-14T08:05:50;6.57;;;3.50;;
23676;SDS011;31493;49.058;12.190;2023-06-14T08:08:18;4.80;;;3.50;;
23676;SDS011;31493;49.058;12.190;2023-06-14T08:10:45;4.38;;;3.20;;
23676;SDS011;31493;49.058;12.190;2023-06-14T08:13:12;6.05;;;3.25;;
23676;SDS011;31493;49.058;12.190;2023-06-14T08:15:40;5.05;;;3.38;;
23676;SDS011;31493;49.058;12.190;2023-06-14T08:18:07;4.85;;;3.22;;
23676;SDS011;31493;49.058;12.190;2023-06-14T08:20:34;9.93;;;3.85;;
23676;SDS011;31493;49.058;12.190;2023-06-14T08:23:02;6.40;;;3.10;;
23676;SDS011;31493;49.058;12.190;2023-06-14T08:25:29;5.70;;;3.35;;
23676;SDS011;31493;49.058;12.190;2023-06-14T08:27:56;8.25;;;3.58;;
23676;SDS011;31493;49.058;12.190;2023-06-14T08:30:23;5.90;;;3.30;;
23676;SDS011;31493;49.058;12.190;2023-06-14T08:32:52;6.03;;;3.60;;
23676;SDS011;31493;49.058;12.190;2023-06-14T08:35:21;9.13;;;3.75;;
23676;SDS011;31493;49.058;12.190;2023-06-14T08:37:48;6.47;;;3.53;;
23676;SDS011;31493;49.058;12.190;2023-06-14T08:40:18;5.13;;;3.20;;
23676;SDS011;31493;49.058;12.190;2023-06-14T08:42:47;9.43;;;3.38;;
23676;SDS011;31493;49.058;12.190;2023-06-14T08:45:17;5.75;;;3.50;;
23676;SDS011;31493;49.058;12.190;2023-06-14T08:47:45;8.05;;;3.35;;
23676;SDS011;31493;49.058;12.190;2023-06-14T08:50:18;6.80;;;3.60;;
23676;SDS011;31493;49.058;12.190;2023-06-14T08:52:48;3.92;;;3.20;;
23676;SDS011;31493;49.058;12.190;2023-06-14T08:55:19;4.82;;;3.20;;
23676;SDS011;31493;49.058;12.190;2023-06-14T08:57:46;4.75;;;3.20;;
23676;SDS011;31493;49.058;12.190;2023-06-14T09:00:15;6.78;;;3.60;;
23676;SDS011;31493;49.058;12.190;2023-06-14T09:02:43;6.93;;;3.50;;
23676;SDS011;31493;49.058;12.190;2023-06-14T09:05:10;4.13;;;3.22;;
23676;SDS011;31493;49.058;12.190;2023-06-14T09:07:40;7.57;;;3.10;;
23676;SDS011;31493;49.058;12.190;2023-06-14T09:10:09;6.60;;;3.65;;
23676;SDS011;31493;49.058;12.190;2023-06-14T09:12:37;7.38;;;3.50;;
23676;SDS011;31493;49.058;12.190;2023-06-14T09:15:06;10.87;;;3.30;;
23676;SDS011;31493;49.058;12.190;2023-06-14T09:17:34;6.53;;;3.42;;
23676;SDS011;31493;49.058;12.190;2023-06-14T09:20:02;6.65;;;3.35;;
23676;SDS011;31493;49.058;12.190;2023-06-14T09:22:32;4.07;;;3.33;;
23676;SDS011;31493;49.058;12.190;2023-06-14T09:25:00;7.38;;;3.30;;
23676;SDS011;31493;49.058;12.190;2023-06-14T09:27:27;6.35;;;3.28;;
23676;SDS011;31493;49.058;12.190;2023-06-14T09:29:55;6.53;;;3.25;;
23676;SDS011;31493;49.058;12.190;2023-06-14T09:32:22;5.30;;;3.10;;
23676;SDS011;31493;49.058;12.190;2023-06-14T09:34:49;8.40;;;3.30;;
23676;SDS011;31493;49.058;12.190;2023-06-14T09:37:29;6.28;;;3.33;;
23676;SDS011;31493;49.058;12.190;2023-06-14T09:39:58;8.75;;;3.40;;
23676;SDS011;31493;49.058;12.190;2023-06-14T09:42:26;6.95;;;3.28;;
23676;SDS011;31493;49.058;12.190;2023-06-14T09:44:55;7.15;;;3.85;;
23676;SDS011;31493;49.058;12.190;2023-06-14T09:47:23;5.40;;;3.33;;
23676;SDS011;31493;49.058;12.190;2023-06-14T09:49:51;5.47;;;3.03;;
23676;SDS011;31493;49.058;12.190;2023-06-14T09:52:20;6.47;;;3.08;;
23676;SDS011;31493;49.058;12.190;2023-06-14T09:54:49;6.35;;;3.20;;
23676;SDS011;31493;49.058;12.190;2023-06-14T09:57:17;6.32;;;3.50;;
23676;SDS011;31493;49.058;12.190;2023-06-14T09:59:50;5.13;;;3.10;;
23676;SDS011;31493;49.058;12.190;2023-06-14T10:02:24;7.13;;;3.25;;
23676;SDS011;31493;49.058;12.190;2023-06-14T10:04:54;6.20;;;3.40;;
23676;SDS011;31493;49.058;12.190;2023-06-14T10:07:26;5.82;;;3.53;;
23676;SDS011;31493;49.058;12.190;2023-06-14T10:09:57;5.90;;;3.45;;
23676;SDS011;31493;49.058;12.190;2023-06-14T10:12:24;6.50;;;3.38;;
23676;SDS011;31493;49.058;12.190;2023-06-14T10:14:54;7.13;;;3.53;;
23676;SDS011;31493;49.058;12.190;2023-06-14T10:17:24;5.18;;;3.38;;
23676;SDS011;31493;49.058;12.190;2023-06-14T10:20:03;5.22;;;3.47;;
23676;SDS011;31493;49.058;12.190;2023-06-14T10:22:41;8.35;;;3.50;;
23676;SDS011;31493;49.058;12.190;2023-06-14T10:25:13;4.93;;;3.38;;
23676;SDS011;31493;49.058;12.190;2023-06-14T10:27:55;6.38;;;3.22;;
23676;SDS011;31493;49.058;12.190;2023-06-14T10:30:30;7.38;;;3.33;;
23676;SDS011;31493;49.058;12.190;2023-06-14T10:33:03;7.07;;;3.55;;
23676;SDS011;31493;49.058;12.190;2023-06-14T10:35:31;4.07;;;3.00;;
23676;SDS011;31493;49.058;12.190;2023-06-14T10:38:06;7.00;;;3.40;;
23676;SDS011;31493;49.058;12.190;2023-06-14T10:40:34;6.93;;;3.33;;
23676;SDS011;31493;49.058;12.190;2023-06-14T10:43:01;5.55;;;3.17;;
23676;SDS011;31493;49.058;12.190;2023-06-14T10:48:48;6.40;;;3.75;;
23676;SDS011;31493;49.058;12.190;2023-06-14T10:51:16;6.38;;;3.60;;
23676;SDS011;31493;49.058;12.190;2023-06-14T10:53:46;7.80;;;3.20;;
23676;SDS011;31493;49.058;12.190;2023-06-14T10:56:26;8.50;;;3.30;;
23676;SDS011;31493;49.058;12.190;2023-06-14T10:58:54;5.32;;;3.55;;
23676;SDS011;31493;49.058;12.190;2023-06-14T11:01:28;7.22;;;3.35;;
23676;SDS011;31493;49.058;12.190;2023-06-14T11:06:36;9.57;;;3.42;;
23676;SDS011;31493;49.058;12.190;2023-06-14T11:12:21;6.45;;;3.50;;
23676;SDS011;31493;49.058;12.190;2023-06-14T11:14:51;8.35;;;3.65;;
23676;SDS011;31493;49.058;12.190;2023-06-14T11:17:19;4.63;;;3.30;;
23676;SDS011;31493;49.058;12.190;2023-06-14T11:19:46;7.05;;;3.78;;
23676;SDS011;31493;49.058;12.190;2023-06-14T11:22:13;5.35;;;3.40;;
23676;SDS011;31493;49.058;12.190;2023-06-14T11:24:42;6.13;;;3.47;;
23676;SDS011;31493;49.058;12.190;2023-06-14T11:27:09;5.93;;;3.88;;
23676;SDS011;31493;49.058;12.190;2023-06-14T11:29:37;4.72;;;3.30;;
23676;SDS011;31493;49.058;12.190;2023-06-14T11:32:06;5.05;;;3.20;;
23676;SDS011;31493;49.058;12.190;2023-06-14T11:34:39;6.40;;;3.30;;
23676;SDS011;31493;49.058;12.190;2023-06-14T11:39:33;6.22;;;3.40;;
23676;SDS011;31493;49.058;12.190;2023-06-14T11:42:01;5.47;;;3.30;;
23676;SDS011;31493;49.058;12.190;2023-06-14T11:44:29;3.67;;;3.13;;
23676;SDS011;31493;49.058;12.190;2023-06-14T11:46:56;6.43;;;3.22;;
23676;SDS011;31493;49.058;12.190;2023-06-14T11:49:23;8.38;;;3.72;;
23676;SDS011;31493;49.058;12.190;2023-06-14T11:51:51;5.47;;;3.47;;
23676;SDS011;31493;49.058;12.190;2023-06-14T11:54:19;6.45;;;3.22;;
23676;SDS011;31493;49.058;12.190;2023-06-14T11:56:46;12.90;;;3.70;;
23676;SDS011;31493;49.058;12.190;2023-06-14T11:59:13;5.15;;;3.88;;
23676;SDS011;31493;49.058;12.190;2023-06-14T12:01:42;5.97;;;3.63;;
23676;SDS011;31493;49.058;12.190;2023-06-14T12:04:10;5.28;;;3.17;;
23676;SDS011;31493;49.058;12.190;2023-06-14T12:06:37;11.05;;;3.63;;
23676;SDS011;31493;49.058;12.190;2023-06-14T12:09:07;8.05;;;3.75;;
23676;SDS011;31493;49.058;12.190;2023-06-14T12:11:38;7.32;;;3.88;;
23676;SDS011;31493;49.058;12.190;2023-06-14T12:14:05;6.68;;;3.45;;
23676;SDS011;31493;49.058;12.190;2023-06-14T12:16:33;5.05;;;3.45;;
23676;SDS011;31493;49.058;12.190;2023-06-14T12:19:01;4.07;;;3.22;;
23676;SDS011;31493;49.058;12.190;2023-06-14T12:21:36;5.82;;;3.65;;
23676;SDS011;31493;49.058;12.190;2023-06-14T12:24:04;5.80;;;3.05;;
23676;SDS011;31493;49.058;12.190;2023-06-14T12:26:33;6.25;;;3.13;;
23676;SDS011;31493;49.058;12.190;2023-06-14T12:29:04;6.13;;;3.20;;
23676;SDS011;31493;49.058;12.190;2023-06-14T12:31:31;5.97;;;3.20;;
23676;SDS011;31493;49.058;12.190;2023-06-14T12:33:59;7.18;;;3.65;;
23676;SDS011;31493;49.058;12.190;2023-06-14T12:36:26;5.68;;;3.25;;
23676;SDS011;31493;49.058;12.190;2023-06-14T12:38:53;6.13;;;3.42;;
23676;SDS011;31493;49.058;12.190;2023-06-14T12:41:20;6.75;;;3.20;;
23676;SDS011;31493;49.058;12.190;2023-06-14T12:43:49;7.18;;;3.78;;
23676;SDS011;31493;49.058;12.190;2023-06-14T12:46:17;5.68;;;3.58;;
23676;SDS011;31493;49.058;12.190;2023-06-14T12:48:44;7.97;;;3.47;;
23676;SDS011;31493;49.058;12.190;2023-06-14T12:51:11;9.30;;;3.33;;
23676;SDS011;31493;49.058;12.190;2023-06-14T12:53:38;5.25;;;3.33;;
23676;SDS011;31493;49.058;12.190;2023-06-14T12:56:05;8.07;;;3.25;;
23676;SDS011;31493;49.058;12.190;2023-06-14T12:58:32;6.53;;;3.65;;
23676;SDS011;31493;49.058;12.190;2023-06-14T13:01:00;4.55;;;3.10;;
23676;SDS011;31493;49.058;12.190;2023-06-14T13:03:27;4.32;;;3.25;;
23676;SDS011;31493;49.058;12.190;2023-06-14T13:05:54;3.90;;;3.00;;
23676;SDS011;31493;49.058;12.190;2023-06-14T13:08:21;4.60;;;3.08;;
23676;SDS011;31493;49.058;12.190;2023-06-14T13:10:49;5.53;;;3.55;;
23676;SDS011;31493;49.058;12.190;2023-06-14T13:13:16;7.60;;;3.28;;
23676;SDS011;31493;49.058;12.190;2023-06-14T13:15:43;4.80;;;3.13;;
23676;SDS011;31493;49.058;12.190;2023-06-14T13:18:12;6.03;;;3.63;;
23676;SDS011;31493;49.058;12.190;2023-06-14T13:20:39;7.18;;;3.50;;
23676;SDS011;31493;49.058;12.190;2023-06-14T13:23:06;5.43;;;3.33;;
23676;SDS011;31493;49.058;12.190;2023-06-14T13:25:34;5.75;;;3.08;;
23676;SDS011;31493;49.058;12.190;2023-06-14T13:28:01;6.28;;;3.10;;
23676;SDS011;31493;49.058;12.190;2023-06-14T13:30:28;10.68;;;3.30;;
23676;SDS011;31493;49.058;12.190;2023-06-14T13:32:55;7.80;;;3.30;;
23676;SDS011;31493;49.058;12.190;2023-06-14T13:35:24;4.97;;;3.20;;
23676;SDS011;31493;49.058;12.190;2023-06-14T13:37:51;5.05;;;3.30;;
23676;SDS011;31493;49.058;12.190;2023-06-14T13:40:19;8.10;;;3.25;;
23676;SDS011;31493;49.058;12.190;2023-06-14T13:42:46;4.93;;;3.15;;
23676;SDS011;31493;49.058;12.190;2023-06-14T13:45:14;6.00;;;3.08;;
23676;SDS011;31493;49.058;12.190;2023-06-14T13:47:42;8.88;;;3.28;;
23676;SDS011;31493;49.058;12.190;2023-06-14T13:50:09;4.95;;;3.28;;
23676;SDS011;31493;49.058;12.190;2023-06-14T13:52:38;4.25;;;2.92;;
23676;SDS011;31493;49.058;12.190;2023-06-14T13:55:05;4.82;;;2.80;;
23676;SDS011;31493;49.058;12.190;2023-06-14T13:57:33;5.70;;;3.15;;
23676;SDS011;31493;49.058;12.190;2023-06-14T14:00:00;5.75;;;3.20;;
23676;SDS011;31493;49.058;12.190;2023-06-14T14:02:28;3.60;;;2.70;;
23676;SDS011;31493;49.058;12.190;2023-06-14T14:04:55;6.38;;;3.33;;
23676;SDS011;31493;49.058;12.190;2023-06-14T14:07:23;7.00;;;3.10;;
23676;SDS011;31493;49.058;12.190;2023-06-14T14:09:51;5.85;;;3.00;;
23676;SDS011;31493;49.058;12.190;2023-06-14T14:14:45;4.28;;;2.92;;
23676;SDS011;31493;49.058;12.190;2023-06-14T14:17:12;4.45;;;3.28;;
23676;SDS011;31493;49.058;12.190;2023-06-14T14:19:39;4.38;;;3.15;;
23676;SDS011;31493;49.058;12.190;2023-06-14T14:22:07;5.30;;;3.00;;
23676;SDS011;31493;49.058;12.190;2023-06-14T14:24:34;5.80;;;3.40;;
23676;SDS011;31493;49.058;12.190;2023-06-14T14:27:02;7.45;;;2.90;;
23676;SDS011;31493;49.058;12.190;2023-06-14T14:31:57;4.53;;;2.90;;
23676;SDS011;31493;49.058;12.190;2023-06-14T14:34:24;7.00;;;3.10;;
23676;SDS011;31493;49.058;12.190;2023-06-14T14:36:51;7.20;;;3.10;;
23676;SDS011;31493;49.058;12.190;2023-06-14T14:39:18;3.75;;;3.33;;
23676;SDS011;31493;49.058;12.190;2023-06-14T14:41:46;9.98;;;3.53;;
23676;SDS011;31493;49.058;12.190;2023-06-14T14:44:14;8.73;;;3.22;;
23676;SDS011;31493;49.058;12.190;2023-06-14T14:46:41;3.40;;;2.95;;
23676;SDS011;31493;49.058;12.190;2023-06-14T14:49:09;7.60;;;2.87;;
23676;SDS011;31493;49.058;12.190;2023-06-14T14:51:36;3.50;;;2.90;;
23676;SDS011;31493;49.058;12.190;2023-06-14T14:54:04;6.22;;;2.90;;
23676;SDS011;31493;49.058;12.190;2023-06-14T14:56:31;3.53;;;3.05;;
23676;SDS011;31493;49.058;12.190;2023-06-14T14:58:58;6.55;;;3.03;;
23676;SDS011;31493;49.058;12.190;2023-06-14T15:01:26;8.85;;;3.10;;
23676;SDS011;31493;49.058;12.190;2023-06-14T15:03:53;4.72;;;2.95;;